Nocc Caspian — V7YT4 — position and weather

sailwx.info

Track history (hours):
 
Tides and Currents Weather Stations Pressure Air Temp Water Temp Dewpoint Dewpoint Depression Visibility Wind Speed Wind Dir Waves Ship Positions

Nocc Caspian

Last reported at 2016-Dec-16 19:27 UTC. Time now 2017-Jan-21 21:44 UTC.
Position N 31°06' E 122°18'.
Warning: this ship's position is 36 days out of date.

Length 184 m; draft 7.7 m.

Type: Cargo ship. MMSI: 538004728.

Date/timePositionNaut miles runAvg speedWind from/ knotsBaromVisibWave heightAir tempDewpointWater temp
2016-Dec-16 19:27N 31°06' E 122°18'1213.7
2016-Dec-16 18:34N 31°13' E 122°07'1111.2
2016-Dec-16 17:34N 31°16' E 121°54'1010.2
2016-Dec-16 16:34N 31°19' E 121°43'9 8.9
2016-Dec-16 15:34N 31°24' E 121°34'10 9.6
2016-Dec-16 14:34N 31°30' E 121°25'1111.1
2016-Dec-16 13:33N 31°37' E 121°15'1111.2
2016-Dec-16 12:33N 31°45' E 121°05'1110.5
2016-Dec-16 11:32N 31°50' E 120°54'20 9.4
2016-Dec-16 09:27N 32°00' E 120°35'9 9.6
2016-Dec-16 08:33N 32°01' E 120°25'3 2.1
2016-Dec-16 07:04N 31°58' E 120°25'0 0.0
2016-Dec-16 06:28N 31°58' E 120°25'0 0.0
2016-Dec-16 05:28N 31°58' E 120°25'0 0.0
2016-Dec-16 04:28N 31°58' E 120°25'0 0.0
2016-Dec-16 03:28N 31°58' E 120°25'0 0.0
2016-Dec-16 02:28N 31°58' E 120°25'0 0.0
2016-Dec-16 01:28N 31°58' E 120°25'0 0.0
2016-Dec-16 00:28N 31°58' E 120°25'0 0.0
2016-Dec-15 23:31N 31°58' E 120°25'0 0.0
2016-Dec-15 22:32N 31°58' E 120°25'0 0.0
2016-Dec-15 21:31N 31°58' E 120°25'0 0.0
2016-Dec-15 20:28N 31°58' E 120°25'0 0.0
2016-Dec-15 19:31N 31°58' E 120°25'0 0.0
2016-Dec-15 18:31N 31°58' E 120°25'0 0.0
2016-Dec-15 17:16N 31°58' E 120°25'0 0.0
2016-Dec-15 16:28N 31°58' E 120°25'0 0.0
2016-Dec-15 15:28N 31°58' E 120°25'0 0.0
2016-Dec-15 14:31N 31°58' E 120°25'0 0.0
2016-Dec-15 13:31N 31°58' E 120°25'0 0.0
2016-Dec-15 12:28N 31°58' E 120°25'0 0.0
2016-Dec-15 11:28N 31°58' E 120°25'0 0.0
2016-Dec-15 10:28N 31°58' E 120°25'0 0.0
2016-Dec-15 09:28N 31°58' E 120°25'0 0.0
2016-Dec-15 08:25N 31°58' E 120°25'0 0.0
2016-Dec-15 06:25N 31°58' E 120°25'0 0.0
2016-Dec-15 05:16N 31°58' E 120°25'0 0.0
2016-Dec-15 04:28N 31°58' E 120°25'0 0.0
2016-Dec-15 03:22N 31°58' E 120°25'0 0.0
2016-Dec-15 02:04N 31°58' E 120°25'0 0.0
2016-Dec-15 00:28N 31°58' E 120°25'0 0.0
2016-Dec-14 23:28N 31°58' E 120°25'0 0.0
2016-Dec-14 18:22N 31°58' E 120°25'0 0.0
2016-Dec-14 17:04N 31°58' E 120°25'0 0.0
2016-Dec-14 16:22N 31°58' E 120°25'0 0.0
2016-Dec-14 15:28N 31°58' E 120°25'0 0.0
2016-Dec-14 14:28N 31°58' E 120°25'0 0.0
2016-Dec-14 07:22N 31°58' E 120°25'0 0.0
2016-Dec-14 06:10N 31°58' E 120°25'0 0.0
2016-Dec-14 04:28N 31°58' E 120°25'0 0.0
2016-Dec-14 01:07N 31°58' E 120°25'0 0.0
2016-Dec-14 00:25N 31°58' E 120°25'0 0.0
2016-Dec-13 23:13N 31°58' E 120°25'0 0.0
2016-Dec-13 22:31N 31°58' E 120°25'0 0.0
2016-Dec-13 20:07N 31°58' E 120°25'0 0.0
2016-Dec-13 19:31N 31°58' E 120°25'0 0.0
2016-Dec-13 17:19N 31°58' E 120°25'0 0.0
2016-Dec-13 16:31N 31°58' E 120°25'0 0.0
2016-Dec-13 12:31N 31°58' E 120°25'0 0.0
2016-Dec-13 11:07N 31°58' E 120°25'0 0.0
2016-Dec-13 05:19N 31°58' E 120°25'0 0.0
2016-Dec-13 01:19N 31°58' E 120°25'0 0.0
2016-Dec-13 00:07N 31°58' E 120°25'0 0.0
2016-Dec-12 23:31N 31°58' E 120°25'0 0.0
2016-Dec-12 22:31N 31°58' E 120°25'0 0.0
2016-Dec-12 21:31N 31°58' E 120°25'0 0.0
2016-Dec-12 04:07N 31°58' E 120°25'0 0.0
2016-Dec-12 03:07N 31°58' E 120°25'0 0.0
2016-Dec-12 02:33N 31°58' E 120°25'0 0.0
2016-Dec-11 23:25N 31°58' E 120°25'0 0.0
2016-Dec-11 20:13N 31°58' E 120°25'0 0.0
2016-Dec-11 19:25N 31°58' E 120°25'0 0.0
2016-Dec-11 18:31N 31°58' E 120°25'0 0.0
2016-Dec-11 17:31N 31°58' E 120°25'0 0.0
2016-Dec-11 16:19N 31°58' E 120°25'0 0.0
2016-Dec-11 15:13N 31°58' E 120°25'0 0.0
2016-Dec-11 14:07N 31°58' E 120°25'0 0.0
2016-Dec-11 13:15N 31°58' E 120°25'0 0.0
2016-Dec-11 11:25N 31°58' E 120°25'0 0.0
2016-Dec-11 09:33N 31°58' E 120°25'0 0.0
2016-Dec-11 07:31N 31°58' E 120°25'0 0.0
2016-Dec-11 02:25N 31°58' E 120°25'0 0.0
2016-Dec-10 19:31N 31°58' E 120°25'0 0.0
2016-Dec-10 18:19N 31°58' E 120°25'0 0.0
2016-Dec-10 14:30N 31°58' E 120°25'0 0.0
2016-Dec-10 13:33N 31°58' E 120°25'0 0.0
2016-Dec-10 12:25N 31°58' E 120°25'0 0.0
2016-Dec-10 11:13N 31°58' E 120°25'0 0.0
2016-Dec-10 10:27N 31°58' E 120°25'0 0.0
2016-Dec-10 09:31N 31°58' E 120°25'0 0.0
2016-Dec-10 08:33N 31°58' E 120°25'0 0.0
2016-Dec-10 07:25N 31°58' E 120°25'0 0.0
2016-Dec-10 06:12N 31°58' E 120°25'0 0.0
2016-Dec-10 04:31N 31°58' E 120°25'0 0.0
2016-Dec-10 03:31N 31°58' E 120°25'0 0.0
2016-Dec-10 02:25N 31°58' E 120°25'0 0.0
2016-Dec-10 01:25N 31°58' E 120°25'0 0.0
2016-Dec-09 23:24N 31°58' E 120°25'0 0.0
2016-Dec-09 22:19N 31°58' E 120°25'0 0.0
2016-Dec-09 20:30N 31°58' E 120°25'0 0.0
2016-Dec-09 19:25N 31°58' E 120°25'0 0.0
2016-Dec-09 18:25N 31°58' E 120°25'0 0.0
2016-Dec-09 17:24N 31°58' E 120°25'0 0.0
2016-Dec-09 16:31N 31°58' E 120°25'0 0.0
2016-Dec-09 15:06N 31°58' E 120°25'0 0.0
2016-Dec-09 14:13N 31°58' E 120°25'0 0.0
2016-Dec-09 13:30N 31°58' E 120°25'0 0.0
2016-Dec-09 12:12N 31°58' E 120°25'0 0.0
2016-Dec-09 11:30N 31°58' E 120°25'0 0.0
2016-Dec-09 10:33N 31°58' E 120°25'0 0.0
2016-Dec-09 09:24N 31°58' E 120°25'0 0.0
2016-Dec-09 08:27N 31°58' E 120°25'0 0.0
2016-Dec-09 07:33N 31°58' E 120°25'0 0.0
2016-Dec-09 06:30N 31°58' E 120°25'0 0.0
2016-Dec-09 05:30N 31°58' E 120°25'0 0.0
2016-Dec-09 03:31N 31°58' E 120°25'0 0.0
2016-Dec-09 02:13N 31°58' E 120°25'0 0.0
2016-Dec-09 01:24N 31°58' E 120°25'0 0.0
2016-Dec-09 00:30N 31°58' E 120°25'0 0.0
2016-Dec-08 23:18N 31°58' E 120°25'0 0.0
2016-Dec-08 22:33N 31°58' E 120°25'0 0.0
2016-Dec-08 21:24N 31°58' E 120°25'0 0.0
2016-Dec-08 20:31N 31°58' E 120°25'0 0.0
2016-Dec-08 19:25N 31°58' E 120°25'0 0.0
2016-Dec-08 18:21N 31°58' E 120°25'0 0.0
2016-Dec-08 17:27N 31°58' E 120°25'0 0.0
2016-Dec-08 15:19N 31°58' E 120°25'0 0.0
2016-Dec-08 13:24N 31°58' E 120°25'0 0.0
2016-Dec-08 12:31N 31°58' E 120°25'0 0.0
2016-Dec-08 11:25N 31°58' E 120°25'0 0.0
2016-Dec-08 08:24N 31°58' E 120°25'0 0.0
2016-Dec-08 06:13N 31°58' E 120°25'0 0.0
2016-Dec-08 05:31N 31°58' E 120°25'0 0.0
2016-Dec-08 04:30N 31°58' E 120°25'0 0.0
2016-Dec-08 03:12N 31°58' E 120°25'0 0.0
2016-Dec-08 02:27N 31°58' E 120°25'0 0.0
2016-Dec-08 01:31N 31°58' E 120°25'0 0.0
2016-Dec-08 00:31N 31°58' E 120°25'0 0.0
2016-Dec-07 23:24N 31°58' E 120°25'0 0.0
2016-Dec-07 22:30N 31°58' E 120°25'0 0.0
2016-Dec-07 21:03N 31°58' E 120°25'  
Track history (hours):
 
Tides and Currents Weather Stations Pressure Air Temp Water Temp Dewpoint Dewpoint Depression Visibility Wind Speed Wind Dir Waves Ship Positions

Nocc Caspian

Last reported at 2016-Dec-16 19:27 UTC. Time now 2017-Jan-21 21:44 UTC.
Position N 31°06' E 122°18'.
Warning: this ship's position is 36 days out of date.

Length 184 m; draft 7.7 m.

Type: Cargo ship. MMSI: 538004728.

Date/timePositionNaut miles runAvg speedWind from/ knotsBaromVisibWave heightAir tempDewpointWater temp
2016-Dec-16 19:27N 31°06' E 122°18'1213.7
2016-Dec-16 18:34N 31°13' E 122°07'1111.2
2016-Dec-16 17:34N 31°16' E 121°54'1010.2
2016-Dec-16 16:34N 31°19' E 121°43'9 8.9
2016-Dec-16 15:34N 31°24' E 121°34'10 9.6
2016-Dec-16 14:34N 31°30' E 121°25'1111.1
2016-Dec-16 13:33N 31°37' E 121°15'1111.2
2016-Dec-16 12:33N 31°45' E 121°05'1110.5
2016-Dec-16 11:32N 31°50' E 120°54'20 9.4
2016-Dec-16 09:27N 32°00' E 120°35'9 9.6
2016-Dec-16 08:33N 32°01' E 120°25'3 2.1
2016-Dec-16 07:04N 31°58' E 120°25'0 0.0
2016-Dec-16 06:28N 31°58' E 120°25'0 0.0
2016-Dec-16 05:28N 31°58' E 120°25'0 0.0
2016-Dec-16 04:28N 31°58' E 120°25'0 0.0
2016-Dec-16 03:28N 31°58' E 120°25'0 0.0
2016-Dec-16 02:28N 31°58' E 120°25'0 0.0
2016-Dec-16 01:28N 31°58' E 120°25'0 0.0
2016-Dec-16 00:28N 31°58' E 120°25'0 0.0
2016-Dec-15 23:31N 31°58' E 120°25'0 0.0
2016-Dec-15 22:32N 31°58' E 120°25'0 0.0
2016-Dec-15 21:31N 31°58' E 120°25'0 0.0
2016-Dec-15 20:28N 31°58' E 120°25'0 0.0
2016-Dec-15 19:31N 31°58' E 120°25'0 0.0
2016-Dec-15 18:31N 31°58' E 120°25'0 0.0
2016-Dec-15 17:16N 31°58' E 120°25'0 0.0
2016-Dec-15 16:28N 31°58' E 120°25'0 0.0
2016-Dec-15 15:28N 31°58' E 120°25'0 0.0
2016-Dec-15 14:31N 31°58' E 120°25'0 0.0
2016-Dec-15 13:31N 31°58' E 120°25'0 0.0
2016-Dec-15 12:28N 31°58' E 120°25'0 0.0
2016-Dec-15 11:28N 31°58' E 120°25'0 0.0
2016-Dec-15 10:28N 31°58' E 120°25'0 0.0
2016-Dec-15 09:28N 31°58' E 120°25'0 0.0
2016-Dec-15 08:25N 31°58' E 120°25'0 0.0
2016-Dec-15 06:25N 31°58' E 120°25'0 0.0
2016-Dec-15 05:16N 31°58' E 120°25'0 0.0
2016-Dec-15 04:28N 31°58' E 120°25'0 0.0
2016-Dec-15 03:22N 31°58' E 120°25'0 0.0
2016-Dec-15 02:04N 31°58' E 120°25'0 0.0
2016-Dec-15 00:28N 31°58' E 120°25'0 0.0
2016-Dec-14 23:28N 31°58' E 120°25'0 0.0
2016-Dec-14 18:22N 31°58' E 120°25'0 0.0
2016-Dec-14 17:04N 31°58' E 120°25'0 0.0
2016-Dec-14 16:22N 31°58' E 120°25'0 0.0
2016-Dec-14 15:28N 31°58' E 120°25'0 0.0
2016-Dec-14 14:28N 31°58' E 120°25'0 0.0
2016-Dec-14 07:22N 31°58' E 120°25'0 0.0
2016-Dec-14 06:10N 31°58' E 120°25'0 0.0
2016-Dec-14 04:28N 31°58' E 120°25'0 0.0
2016-Dec-14 01:07N 31°58' E 120°25'0 0.0
2016-Dec-14 00:25N 31°58' E 120°25'0 0.0
2016-Dec-13 23:13N 31°58' E 120°25'0 0.0
2016-Dec-13 22:31N 31°58' E 120°25'0 0.0
2016-Dec-13 20:07N 31°58' E 120°25'0 0.0
2016-Dec-13 19:31N 31°58' E 120°25'0 0.0
2016-Dec-13 17:19N 31°58' E 120°25'0 0.0
2016-Dec-13 16:31N 31°58' E 120°25'0 0.0
2016-Dec-13 12:31N 31°58' E 120°25'0 0.0
2016-Dec-13 11:07N 31°58' E 120°25'0 0.0
2016-Dec-13 05:19N 31°58' E 120°25'0 0.0
2016-Dec-13 01:19N 31°58' E 120°25'0 0.0
2016-Dec-13 00:07N 31°58' E 120°25'0 0.0
2016-Dec-12 23:31N 31°58' E 120°25'0 0.0
2016-Dec-12 22:31N 31°58' E 120°25'0 0.0
2016-Dec-12 21:31N 31°58' E 120°25'0 0.0
2016-Dec-12 04:07N 31°58' E 120°25'0 0.0
2016-Dec-12 03:07N 31°58' E 120°25'0 0.0
2016-Dec-12 02:33N 31°58' E 120°25'0 0.0
2016-Dec-11 23:25N 31°58' E 120°25'0 0.0
2016-Dec-11 20:13N 31°58' E 120°25'0 0.0
2016-Dec-11 19:25N 31°58' E 120°25'0 0.0
2016-Dec-11 18:31N 31°58' E 120°25'0 0.0
2016-Dec-11 17:31N 31°58' E 120°25'0 0.0
2016-Dec-11 16:19N 31°58' E 120°25'0 0.0
2016-Dec-11 15:13N 31°58' E 120°25'0 0.0
2016-Dec-11 14:07N 31°58' E 120°25'0 0.0
2016-Dec-11 13:15N 31°58' E 120°25'0 0.0
2016-Dec-11 11:25N 31°58' E 120°25'0 0.0
2016-Dec-11 09:33N 31°58' E 120°25'0 0.0
2016-Dec-11 07:31N 31°58' E 120°25'0 0.0
2016-Dec-11 02:25N 31°58' E 120°25'0 0.0
2016-Dec-10 19:31N 31°58' E 120°25'0 0.0
2016-Dec-10 18:19N 31°58' E 120°25'0 0.0
2016-Dec-10 14:30N 31°58' E 120°25'0 0.0
2016-Dec-10 13:33N 31°58' E 120°25'0 0.0
2016-Dec-10 12:25N 31°58' E 120°25'0 0.0
2016-Dec-10 11:13N 31°58' E 120°25'0 0.0
2016-Dec-10 10:27N 31°58' E 120°25'0 0.0
2016-Dec-10 09:31N 31°58' E 120°25'0 0.0
2016-Dec-10 08:33N 31°58' E 120°25'0 0.0
2016-Dec-10 07:25N 31°58' E 120°25'0 0.0
2016-Dec-10 06:12N 31°58' E 120°25'0 0.0
2016-Dec-10 04:31N 31°58' E 120°25'0 0.0
2016-Dec-10 03:31N 31°58' E 120°25'0 0.0
2016-Dec-10 02:25N 31°58' E 120°25'0 0.0
2016-Dec-10 01:25N 31°58' E 120°25'0 0.0
2016-Dec-09 23:24N 31°58' E 120°25'0 0.0
2016-Dec-09 22:19N 31°58' E 120°25'0 0.0
2016-Dec-09 20:30N 31°58' E 120°25'0 0.0
2016-Dec-09 19:25N 31°58' E 120°25'0 0.0
2016-Dec-09 18:25N 31°58' E 120°25'0 0.0
2016-Dec-09 17:24N 31°58' E 120°25'0 0.0
2016-Dec-09 16:31N 31°58' E 120°25'0 0.0
2016-Dec-09 15:06N 31°58' E 120°25'0 0.0
2016-Dec-09 14:13N 31°58' E 120°25'0 0.0
2016-Dec-09 13:30N 31°58' E 120°25'0 0.0
2016-Dec-09 12:12N 31°58' E 120°25'0 0.0
2016-Dec-09 11:30N 31°58' E 120°25'0 0.0
2016-Dec-09 10:33N 31°58' E 120°25'0 0.0
2016-Dec-09 09:24N 31°58' E 120°25'0 0.0
2016-Dec-09 08:27N 31°58' E 120°25'0 0.0
2016-Dec-09 07:33N 31°58' E 120°25'0 0.0
2016-Dec-09 06:30N 31°58' E 120°25'0 0.0
2016-Dec-09 05:30N 31°58' E 120°25'0 0.0
2016-Dec-09 03:31N 31°58' E 120°25'0 0.0
2016-Dec-09 02:13N 31°58' E 120°25'0 0.0
2016-Dec-09 01:24N 31°58' E 120°25'0 0.0
2016-Dec-09 00:30N 31°58' E 120°25'0 0.0
2016-Dec-08 23:18N 31°58' E 120°25'0 0.0
2016-Dec-08 22:33N 31°58' E 120°25'0 0.0
2016-Dec-08 21:24N 31°58' E 120°25'0 0.0
2016-Dec-08 20:31N 31°58' E 120°25'0 0.0
2016-Dec-08 19:25N 31°58' E 120°25'0 0.0
2016-Dec-08 18:21N 31°58' E 120°25'0 0.0
2016-Dec-08 17:27N 31°58' E 120°25'0 0.0
2016-Dec-08 15:19N 31°58' E 120°25'0 0.0
2016-Dec-08 13:24N 31°58' E 120°25'0 0.0
2016-Dec-08 12:31N 31°58' E 120°25'0 0.0
2016-Dec-08 11:25N 31°58' E 120°25'0 0.0
2016-Dec-08 08:24N 31°58' E 120°25'0 0.0
2016-Dec-08 06:13N 31°58' E 120°25'0 0.0
2016-Dec-08 05:31N 31°58' E 120°25'0 0.0
2016-Dec-08 04:30N 31°58' E 120°25'0 0.0
2016-Dec-08 03:12N 31°58' E 120°25'0 0.0
2016-Dec-08 02:27N 31°58' E 120°25'0 0.0
2016-Dec-08 01:31N 31°58' E 120°25'0 0.0
2016-Dec-08 00:31N 31°58' E 120°25'0 0.0
2016-Dec-07 23:24N 31°58' E 120°25'0 0.0
2016-Dec-07 22:30N 31°58' E 120°25'0 0.0
2016-Dec-07 21:03N 31°58' E 120°25'  

Dump ship's entire track history